This is the latest recevied weather packets stored in our database for station/object KK4XZ. If no packets are shown the sender has not sent any weather packets the latest 10 day(s).
| Time | Temp. | Humidity | Pressure | Rain* | Wind** | Luminosity | Snow |
|---|---|---|---|---|---|---|---|
| 1777590922 | 19.44° C | 73% | 1009.2 hPa | 0 mm | - | - | - |
| 1777590317 | 19.44° C | 72% | 1009.2 hPa | 0 mm | - | - | - |
| 1777589732 | 19.44° C | 72% | 1008.9 hPa | 0 mm | - | - | - |
| 1777589127 | 19.44° C | 73% | 1009.2 hPa | 0 mm | - | - | - |
| 1777588522 | 19.44° C | 71% | 1008.9 hPa | 0 mm | - | - | - |
| 1777587917 | 19.44° C | 73% | 1009 hPa | 0 mm | - | - | - |
| 1777587332 | 19.44° C | 72% | 1009 hPa | 0 mm | - | - | - |
| 1777586728 | 19.44° C | 72% | 1009.1 hPa | 0 mm | - | - | - |
| 1777586123 | 20° C | 72% | 1009 hPa | 0 mm | - | - | - |
| 1777585518 | 20° C | 72% | 1009.1 hPa | 0 mm | - | - | - |
| 1777584933 | 20° C | 73% | 1008.8 hPa | 0 mm | - | - | - |
| 1777584328 | 20° C | 73% | 1008.8 hPa | 0 mm | - | - | - |
| 1777583723 | 20.56° C | 71% | 1008.7 hPa | 0 mm | - | - | - |
| 1777583118 | 21.67° C | 67% | 1008.9 hPa | 0 mm | - | - | - |
| 1777582534 | 21.67° C | 66% | 1008.8 hPa | 0 mm | - | - | - |
| 1777581928 | 22.78° C | 63% | 1008.9 hPa | 0 mm | - | - | - |
| 1777581324 | 21.67° C | 66% | 1008.8 hPa | 0 mm | - | - | - |
| 1777580719 | 22.22° C | 66% | 1008.8 hPa | 0 mm | - | - | - |
| 1777580134 | 22.22° C | 65% | 1009 hPa | 0 mm | - | - | - |
| 1777579529 | 22.78° C | 65% | 1009 hPa | 0 mm | - | - | - |
| 1777578924 | 21.67° C | 65% | 1009.1 hPa | 0 mm | - | - | - |
| 1777578319 | 22.22° C | 64% | 1009.1 hPa | 0 mm | - | - | - |
| 1777577735 | 22.22° C | 64% | 1009 hPa | 0 mm | - | - | - |
| 1777577130 | 21.11° C | 66% | 1009.1 hPa | 0 mm | - | - | - |
| 1777576525 | 21.11° C | 67% | 1009.2 hPa | 0 mm | - | - | - |
* Rain latest hour (hover to see other rain measurements)
** Current wind speed in m/s (hover to see current wind gust speed)